sensor_id;sensor_type;location;lat;lon;timestamp;pressure;altitude;pressure_sealevel;temperature;humidity
36692;BME280;22678;52.052;4.242;2023-07-02T00:00:11;100791.25;;;18.57;68.62
36692;BME280;22678;52.052;4.242;2023-07-02T00:02:37;100792.25;;;18.54;67.57
36692;BME280;22678;52.052;4.242;2023-07-02T00:05:02;100802.91;;;18.54;66.04
36692;BME280;22678;52.052;4.242;2023-07-02T00:07:28;100795.16;;;18.48;64.19
36692;BME280;22678;52.052;4.242;2023-07-02T00:09:53;100808.41;;;18.50;64.41
36692;BME280;22678;52.052;4.242;2023-07-02T00:12:19;100791.81;;;18.43;64.10
36692;BME280;22678;52.052;4.242;2023-07-02T00:14:45;100791.88;;;18.42;64.11
36692;BME280;22678;52.052;4.242;2023-07-02T00:17:10;100795.50;;;18.41;63.79
36692;BME280;22678;52.052;4.242;2023-07-02T00:19:39;100796.41;;;18.39;63.85
36692;BME280;22678;52.052;4.242;2023-07-02T00:22:08;100805.19;;;18.42;63.70
36692;BME280;22678;52.052;4.242;2023-07-02T00:24:34;100781.88;;;18.26;63.96
36692;BME280;22678;52.052;4.242;2023-07-02T00:27:00;100790.66;;;18.28;63.61
36692;BME280;22678;52.052;4.242;2023-07-02T00:29:25;100795.84;;;18.31;63.21
36692;BME280;22678;52.052;4.242;2023-07-02T00:31:50;100799.53;;;18.29;62.62
36692;BME280;22678;52.052;4.242;2023-07-02T00:34:16;100803.97;;;18.28;62.39
36692;BME280;22678;52.052;4.242;2023-07-02T00:36:41;100804.09;;;18.25;62.83
36692;BME280;22678;52.052;4.242;2023-07-02T00:39:07;100806.09;;;18.20;62.56
36692;BME280;22678;52.052;4.242;2023-07-02T00:41:32;100799.16;;;18.16;61.90
36692;BME280;22678;52.052;4.242;2023-07-02T00:43:57;100804.47;;;18.16;61.28
36692;BME280;22678;52.052;4.242;2023-07-02T00:46:23;100813.50;;;18.12;61.12
36692;BME280;22678;52.052;4.242;2023-07-02T00:48:54;100804.72;;;18.10;60.75
36692;BME280;22678;52.052;4.242;2023-07-02T00:51:22;100801.38;;;18.04;60.02
36692;BME280;22678;52.052;4.242;2023-07-02T00:53:50;100798.72;;;18.04;60.00
36692;BME280;22678;52.052;4.242;2023-07-02T00:56:16;100797.03;;;18.02;59.48
36692;BME280;22678;52.052;4.242;2023-07-02T00:58:43;100805.22;;;17.97;59.47
36692;BME280;22678;52.052;4.242;2023-07-02T01:01:22;100805.22;;;17.97;59.60
36692;BME280;22678;52.052;4.242;2023-07-02T01:04:01;100800.97;;;17.93;59.77
36692;BME280;22678;52.052;4.242;2023-07-02T01:06:28;100807.06;;;17.95;59.34
36692;BME280;22678;52.052;4.242;2023-07-02T01:08:57;100797.75;;;17.83;59.14
36692;BME280;22678;52.052;4.242;2023-07-02T01:11:40;100810.88;;;17.88;58.89
36692;BME280;22678;52.052;4.242;2023-07-02T01:14:14;100814.56;;;17.84;58.82
36692;BME280;22678;52.052;4.242;2023-07-02T01:16:42;100813.66;;;17.85;58.93
36692;BME280;22678;52.052;4.242;2023-07-02T01:19:12;100816.44;;;17.82;58.72
36692;BME280;22678;52.052;4.242;2023-07-02T01:21:38;100805.09;;;17.77;58.76
36692;BME280;22678;52.052;4.242;2023-07-02T01:24:04;100795.47;;;17.74;58.22
36692;BME280;22678;52.052;4.242;2023-07-02T01:26:31;100813.97;;;17.77;58.60
36692;BME280;22678;52.052;4.242;2023-07-02T01:29:12;100810.47;;;17.75;57.92
36692;BME280;22678;52.052;4.242;2023-07-02T01:31:38;100811.56;;;17.69;58.23
36692;BME280;22678;52.052;4.242;2023-07-02T01:34:03;100804.41;;;17.72;58.57
36692;BME280;22678;52.052;4.242;2023-07-02T01:36:29;100788.69;;;17.65;58.42
36692;BME280;22678;52.052;4.242;2023-07-02T01:38:55;100790.53;;;17.63;59.08
36692;BME280;22678;52.052;4.242;2023-07-02T01:41:20;100802.13;;;17.62;59.15
36692;BME280;22678;52.052;4.242;2023-07-02T01:43:45;100802.22;;;17.59;59.35
36692;BME280;22678;52.052;4.242;2023-07-02T01:46:11;100813.66;;;17.61;59.10
36692;BME280;22678;52.052;4.242;2023-07-02T01:48:36;100799.59;;;17.58;59.08
36692;BME280;22678;52.052;4.242;2023-07-02T01:51:01;100802.22;;;17.59;59.05
36692;BME280;22678;52.052;4.242;2023-07-02T01:53:27;100803.28;;;17.55;59.27
36692;BME280;22678;52.052;4.242;2023-07-02T01:55:53;100792.22;;;17.42;59.76
36692;BME280;22678;52.052;4.242;2023-07-02T01:58:18;100806.06;;;17.52;59.83
36692;BME280;22678;52.052;4.242;2023-07-02T02:00:43;100793.91;;;17.45;59.86
36692;BME280;22678;52.052;4.242;2023-07-02T02:03:09;100816.09;;;17.44;59.60
36692;BME280;22678;52.052;4.242;2023-07-02T02:05:34;100801.34;;;17.35;59.83
36692;BME280;22678;52.052;4.242;2023-07-02T02:08:00;100802.28;;;17.34;60.13
36692;BME280;22678;52.052;4.242;2023-07-02T02:10:25;100810.28;;;17.32;60.13
36692;BME280;22678;52.052;4.242;2023-07-02T02:12:51;100805.22;;;17.26;59.85
36692;BME280;22678;52.052;4.242;2023-07-02T02:15:16;100819.22;;;17.31;60.19
36692;BME280;22678;52.052;4.242;2023-07-02T02:17:41;100825.56;;;17.27;59.80
36692;BME280;22678;52.052;4.242;2023-07-02T02:20:07;100816.88;;;17.22;60.09
36692;BME280;22678;52.052;4.242;2023-07-02T02:22:33;100825.63;;;17.26;60.23
36692;BME280;22678;52.052;4.242;2023-07-02T02:24:58;100819.69;;;17.17;60.65
36692;BME280;22678;52.052;4.242;2023-07-02T02:27:24;100831.16;;;17.20;60.57
36692;BME280;22678;52.052;4.242;2023-07-02T02:29:49;100828.66;;;17.15;60.73
36692;BME280;22678;52.052;4.242;2023-07-02T02:32:14;100834.91;;;17.14;60.72
36692;BME280;22678;52.052;4.242;2023-07-02T02:34:42;100820.31;;;17.01;60.83
36692;BME280;22678;52.052;4.242;2023-07-02T02:37:08;100831.81;;;17.01;61.31
36692;BME280;22678;52.052;4.242;2023-07-02T02:39:33;100844.22;;;17.01;61.51
36692;BME280;22678;52.052;4.242;2023-07-02T02:41:58;100831.34;;;16.88;61.84
36692;BME280;22678;52.052;4.242;2023-07-02T02:44:23;100846.16;;;16.95;62.27
36692;BME280;22678;52.052;4.242;2023-07-02T02:46:49;100835.75;;;16.89;62.58
36692;BME280;22678;52.052;4.242;2023-07-02T02:49:14;100838.47;;;16.88;62.66
36692;BME280;22678;52.052;4.242;2023-07-02T02:51:39;100839.31;;;16.88;63.00
36692;BME280;22678;52.052;4.242;2023-07-02T02:54:05;100839.50;;;16.82;62.85
36692;BME280;22678;52.052;4.242;2023-07-02T02:56:31;100843.06;;;16.81;62.46
36692;BME280;22678;52.052;4.242;2023-07-02T02:58:56;100832.66;;;16.75;62.26
36692;BME280;22678;52.052;4.242;2023-07-02T03:01:21;100827.25;;;16.78;61.63
36692;BME280;22678;52.052;4.242;2023-07-02T03:03:47;100830.19;;;16.70;61.45
36692;BME280;22678;52.052;4.242;2023-07-02T03:06:16;100824.88;;;16.70;61.48
36692;BME280;22678;52.052;4.242;2023-07-02T03:08:41;100835.50;;;16.70;61.67
36692;BME280;22678;52.052;4.242;2023-07-02T03:11:06;100826.84;;;16.63;61.71
36692;BME280;22678;52.052;4.242;2023-07-02T03:13:32;100841.75;;;16.68;61.19
36692;BME280;22678;52.052;4.242;2023-07-02T03:15:57;100839.25;;;16.63;61.26
36692;BME280;22678;52.052;4.242;2023-07-02T03:18:22;100833.25;;;16.58;60.88
36692;BME280;22678;52.052;4.242;2023-07-02T03:20:48;100836.78;;;16.58;61.40
36692;BME280;22678;52.052;4.242;2023-07-02T03:23:13;100845.63;;;16.57;61.51
36692;BME280;22678;52.052;4.242;2023-07-02T03:25:38;100854.44;;;16.59;61.69
36692;BME280;22678;52.052;4.242;2023-07-02T03:28:04;100851.91;;;16.55;61.50
36692;BME280;22678;52.052;4.242;2023-07-02T03:30:29;100853.00;;;16.49;61.65
36692;BME280;22678;52.052;4.242;2023-07-02T03:32:54;100853.91;;;16.48;61.31
36692;BME280;22678;52.052;4.242;2023-07-02T03:35:20;100839.00;;;16.44;61.54
36692;BME280;22678;52.052;4.242;2023-07-02T03:37:45;100858.41;;;16.46;61.48
36692;BME280;22678;52.052;4.242;2023-07-02T03:40:11;100855.75;;;16.46;61.48
36692;BME280;22678;52.052;4.242;2023-07-02T03:42:36;100875.25;;;16.45;61.80
36692;BME280;22678;52.052;4.242;2023-07-02T03:45:02;100867.28;;;16.45;61.96
36692;BME280;22678;52.052;4.242;2023-07-02T03:47:28;100858.69;;;16.37;62.10
36692;BME280;22678;52.052;4.242;2023-07-02T03:49:54;100849.09;;;16.33;62.39
36692;BME280;22678;52.052;4.242;2023-07-02T03:52:19;100873.66;;;16.39;62.25
36692;BME280;22678;52.052;4.242;2023-07-02T03:54:44;100870.16;;;16.39;62.18
36692;BME280;22678;52.052;4.242;2023-07-02T03:57:10;100870.38;;;16.31;62.27
36692;BME280;22678;52.052;4.242;2023-07-02T03:59:35;100859.84;;;16.28;61.77
36692;BME280;22678;52.052;4.242;2023-07-02T04:02:00;100867.66;;;16.33;61.98
36692;BME280;22678;52.052;4.242;2023-07-02T04:04:26;100870.31;;;16.34;61.72
36692;BME280;22678;52.052;4.242;2023-07-02T04:06:52;100872.97;;;16.33;61.74
36692;BME280;22678;52.052;4.242;2023-07-02T04:09:17;100867.88;;;16.26;62.04
36692;BME280;22678;52.052;4.242;2023-07-02T04:11:43;100880.91;;;16.34;62.04
36692;BME280;22678;52.052;4.242;2023-07-02T04:14:09;100882.78;;;16.31;62.25
36692;BME280;22678;52.052;4.242;2023-07-02T04:16:34;100885.44;;;16.31;62.38
36692;BME280;22678;52.052;4.242;2023-07-02T04:18:59;100888.03;;;16.32;62.85
36692;BME280;22678;52.052;4.242;2023-07-02T04:21:25;100895.00;;;16.36;63.18
36692;BME280;22678;52.052;4.242;2023-07-02T04:23:50;100892.38;;;16.35;63.62
36692;BME280;22678;52.052;4.242;2023-07-02T04:26:15;100897.78;;;16.32;63.88
36692;BME280;22678;52.052;4.242;2023-07-02T04:28:41;100898.66;;;16.32;63.84
36692;BME280;22678;52.052;4.242;2023-07-02T04:31:06;100883.69;;;16.29;63.72
36692;BME280;22678;52.052;4.242;2023-07-02T04:33:32;100904.91;;;16.29;64.06
36692;BME280;22678;52.052;4.242;2023-07-02T04:36:02;100890.16;;;16.21;64.13
36692;BME280;22678;52.052;4.242;2023-07-02T04:38:28;100917.28;;;16.31;64.27
36692;BME280;22678;52.052;4.242;2023-07-02T04:40:53;100912.94;;;16.28;64.24
36692;BME280;22678;52.052;4.242;2023-07-02T04:43:18;100910.28;;;16.28;64.69
36692;BME280;22678;52.052;4.242;2023-07-02T04:45:44;100902.47;;;16.23;64.84
36692;BME280;22678;52.052;4.242;2023-07-02T04:48:09;100918.09;;;16.33;64.90
36692;BME280;22678;52.052;4.242;2023-07-02T04:50:35;100898.75;;;16.29;64.88
36692;BME280;22678;52.052;4.242;2023-07-02T04:53:00;100908.50;;;16.28;64.29
36692;BME280;22678;52.052;4.242;2023-07-02T04:55:26;100913.81;;;16.28;64.13
36692;BME280;22678;52.052;4.242;2023-07-02T04:57:52;100900.69;;;16.24;64.24
36692;BME280;22678;52.052;4.242;2023-07-02T05:00:18;100917.22;;;16.32;64.47
36692;BME280;22678;52.052;4.242;2023-07-02T05:02:43;100907.66;;;16.26;64.13
36692;BME280;22678;52.052;4.242;2023-07-02T05:05:08;100907.56;;;16.29;63.95
36692;BME280;22678;52.052;4.242;2023-07-02T05:07:34;100917.28;;;16.31;64.13
36692;BME280;22678;52.052;4.242;2023-07-02T05:09:59;100918.09;;;16.33;64.17
36692;BME280;22678;52.052;4.242;2023-07-02T05:12:24;100911.97;;;16.31;64.31
36692;BME280;22678;52.052;4.242;2023-07-02T05:14:50;100903.97;;;16.32;64.44
36692;BME280;22678;52.052;4.242;2023-07-02T05:17:15;100923.94;;;16.44;64.37
36692;BME280;22678;52.052;4.242;2023-07-02T05:19:41;100930.59;;;16.57;64.23
36692;BME280;22678;52.052;4.242;2023-07-02T05:22:07;100916.84;;;16.73;64.11
36692;BME280;22678;52.052;4.242;2023-07-02T05:24:32;100909.13;;;16.93;63.93
36692;BME280;22678;52.052;4.242;2023-07-02T05:26:57;100927.53;;;17.25;63.46
36692;BME280;22678;52.052;4.242;2023-07-02T05:29:23;100931.09;;;17.49;62.27
36692;BME280;22678;52.052;4.242;2023-07-02T05:31:48;100935.59;;;17.72;61.90
36692;BME280;22678;52.052;4.242;2023-07-02T05:34:13;100934.97;;;17.89;61.53
36692;BME280;22678;52.052;4.242;2023-07-02T05:36:38;100920.31;;;18.02;60.76
36692;BME280;22678;52.052;4.242;2023-07-02T05:39:04;100942.88;;;18.16;59.14
36692;BME280;22678;52.052;4.242;2023-07-02T05:41:29;100951.16;;;18.32;58.96
36692;BME280;22678;52.052;4.242;2023-07-02T05:43:57;100962.22;;;18.43;58.67
36692;BME280;22678;52.052;4.242;2023-07-02T05:46:23;100971.53;;;18.55;58.71
36692;BME280;22678;52.052;4.242;2023-07-02T05:48:48;100956.31;;;18.59;58.69
36692;BME280;22678;52.052;4.242;2023-07-02T05:51:13;100976.75;;;18.80;58.83
36692;BME280;22678;52.052;4.242;2023-07-02T05:53:39;100977.25;;;18.90;57.93
36692;BME280;22678;52.052;4.242;2023-07-02T05:56:04;100984.09;;;18.97;57.49
36692;BME280;22678;52.052;4.242;2023-07-02T05:58:29;100982.13;;;19.02;57.25
36692;BME280;22678;52.052;4.242;2023-07-02T06:00:55;100974.00;;;19.05;57.35
36692;BME280;22678;52.052;4.242;2023-07-02T06:03:20;100976.13;;;19.18;57.67
36692;BME280;22678;52.052;4.242;2023-07-02T06:05:49;100979.22;;;19.29;57.36
36692;BME280;22678;52.052;4.242;2023-07-02T06:08:15;100986.03;;;19.36;56.35
36692;BME280;22678;52.052;4.242;2023-07-02T06:10:41;100991.22;;;19.39;55.54
36692;BME280;22678;52.052;4.242;2023-07-02T06:13:07;100986.03;;;19.36;54.56
36692;BME280;22678;52.052;4.242;2023-07-02T06:15:32;100991.66;;;19.29;54.48
36692;BME280;22678;52.052;4.242;2023-07-02T06:17:57;100980.34;;;19.23;54.73
36692;BME280;22678;52.052;4.242;2023-07-02T06:20:22;100984.41;;;19.32;55.43
36692;BME280;22678;52.052;4.242;2023-07-02T06:22:48;100990.94;;;19.46;55.41
36692;BME280;22678;52.052;4.242;2023-07-02T06:25:13;100987.22;;;19.50;54.72
36692;BME280;22678;52.052;4.242;2023-07-02T06:27:39;101005.50;;;19.59;54.30
36692;BME280;22678;52.052;4.242;2023-07-02T06:30:05;101004.44;;;19.63;54.43
36692;BME280;22678;52.052;4.242;2023-07-02T06:32:31;101006.69;;;19.72;53.29
36692;BME280;22678;52.052;4.242;2023-07-02T06:34:56;100997.06;;;19.68;53.11
36692;BME280;22678;52.052;4.242;2023-07-02T06:37:21;101013.84;;;19.72;52.26
36692;BME280;22678;52.052;4.242;2023-07-02T06:39:47;101020.38;;;19.65;51.78
36692;BME280;22678;52.052;4.242;2023-07-02T06:42:12;101019.69;;;19.59;52.13
36692;BME280;22678;52.052;4.242;2023-07-02T06:44:37;101003.09;;;19.53;51.89
36692;BME280;22678;52.052;4.242;2023-07-02T06:47:03;101017.00;;;19.59;52.24
36692;BME280;22678;52.052;4.242;2023-07-02T06:49:28;101005.09;;;19.68;52.52
36692;BME280;22678;52.052;4.242;2023-07-02T06:51:53;100997.59;;;19.78;52.67
36692;BME280;22678;52.052;4.242;2023-07-02T06:54:19;101016.72;;;19.88;50.67
36692;BME280;22678;52.052;4.242;2023-07-02T06:56:44;101016.72;;;19.88;50.61
36692;BME280;22678;52.052;4.242;2023-07-02T06:59:09;101036.94;;;19.93;50.72
36692;BME280;22678;52.052;4.242;2023-07-02T07:01:35;101033.38;;;19.93;51.70
36692;BME280;22678;52.052;4.242;2023-07-02T07:04:03;101040.06;;;20.03;51.84
36692;BME280;22678;52.052;4.242;2023-07-02T07:06:29;101024.16;;;20.21;52.22
36692;BME280;22678;52.052;4.242;2023-07-02T07:08:54;101032.31;;;20.37;51.59
36692;BME280;22678;52.052;4.242;2023-07-02T07:11:20;101030.75;;;20.52;50.41
36692;BME280;22678;52.052;4.242;2023-07-02T07:13:45;101028.13;;;20.50;48.98
36692;BME280;22678;52.052;4.242;2023-07-02T07:16:11;101030.59;;;20.55;49.10
36692;BME280;22678;52.052;4.242;2023-07-02T07:18:36;101043.59;;;20.62;49.48
36692;BME280;22678;52.052;4.242;2023-07-02T07:21:02;101039.13;;;20.63;49.42
36692;BME280;22678;52.052;4.242;2023-07-02T07:23:27;101048.94;;;20.62;49.81
36692;BME280;22678;52.052;4.242;2023-07-02T07:25:53;101038.09;;;20.65;49.88
36692;BME280;22678;52.052;4.242;2023-07-02T07:28:18;101049.81;;;20.63;50.35
36692;BME280;22678;52.052;4.242;2023-07-02T07:30:44;101055.75;;;20.70;49.45
36692;BME280;22678;52.052;4.242;2023-07-02T07:33:10;101050.19;;;20.74;49.40
36692;BME280;22678;52.052;4.242;2023-07-02T07:35:35;101070.06;;;20.88;49.13
36692;BME280;22678;52.052;4.242;2023-07-02T07:38:01;101073.53;;;20.90;47.66
36692;BME280;22678;52.052;4.242;2023-07-02T07:40:26;101070.41;;;20.99;47.98
36692;BME280;22678;52.052;4.242;2023-07-02T07:42:51;101067.31;;;21.08;48.22
36692;BME280;22678;52.052;4.242;2023-07-02T07:45:16;101071.59;;;21.11;47.95
36692;BME280;22678;52.052;4.242;2023-07-02T07:47:42;101073.19;;;21.15;47.88
36692;BME280;22678;52.052;4.242;2023-07-02T07:50:08;101064.78;;;21.23;48.45
36692;BME280;22678;52.052;4.242;2023-07-02T07:52:37;101059.47;;;21.40;47.93
36692;BME280;22678;52.052;4.242;2023-07-02T07:55:04;101069.84;;;21.46;46.99
36692;BME280;22678;52.052;4.242;2023-07-02T07:57:30;101072.75;;;21.61;47.04
36692;BME280;22678;52.052;4.242;2023-07-02T07:59:55;101074.88;;;21.72;46.68
36692;BME280;22678;52.052;4.242;2023-07-02T08:02:20;101064.47;;;21.83;46.67
36692;BME280;22678;52.052;4.242;2023-07-02T08:04:48;101063.63;;;21.82;46.08
36692;BME280;22678;52.052;4.242;2023-07-02T08:07:13;101080.94;;;21.93;46.87
36692;BME280;22678;52.052;4.242;2023-07-02T08:09:38;101079.59;;;22.01;46.15
36692;BME280;22678;52.052;4.242;2023-07-02T08:12:04;101083.59;;;22.10;45.97
36692;BME280;22678;52.052;4.242;2023-07-02T08:14:29;101074.28;;;22.17;46.05
36692;BME280;22678;52.052;4.242;2023-07-02T08:16:54;101085.59;;;22.22;46.52
36692;BME280;22678;52.052;4.242;2023-07-02T08:19:20;101079.91;;;22.29;46.20
36692;BME280;22678;52.052;4.242;2023-07-02T08:21:46;101085.94;;;22.34;46.08
36692;BME280;22678;52.052;4.242;2023-07-02T08:24:11;101087.94;;;22.29;46.43
36692;BME280;22678;52.052;4.242;2023-07-02T08:26:38;101098.84;;;22.26;46.51
36692;BME280;22678;52.052;4.242;2023-07-02T08:29:03;101083.94;;;22.20;46.59
36692;BME280;22678;52.052;4.242;2023-07-02T08:31:28;101094.38;;;22.26;46.65
36692;BME280;22678;52.052;4.242;2023-07-02T08:33:54;101091.13;;;22.37;46.86
36692;BME280;22678;52.052;4.242;2023-07-02T08:36:19;101095.47;;;22.55;46.79
36692;BME280;22678;52.052;4.242;2023-07-02T08:38:44;101101.91;;;22.69;46.20
36692;BME280;22678;52.052;4.242;2023-07-02T08:41:10;101113.31;;;22.72;45.54
36692;BME280;22678;52.052;4.242;2023-07-02T08:43:35;101115.56;;;22.80;46.82
36692;BME280;22678;52.052;4.242;2023-07-02T08:46:01;101109.88;;;22.86;46.38
36692;BME280;22678;52.052;4.242;2023-07-02T08:48:26;101112.56;;;23.02;46.13
36692;BME280;22678;52.052;4.242;2023-07-02T08:50:54;101108.34;;;23.14;44.77
36692;BME280;22678;52.052;4.242;2023-07-02T08:53:19;101107.22;;;23.18;45.03
36692;BME280;22678;52.052;4.242;2023-07-02T08:55:50;101107.66;;;23.26;44.70
36692;BME280;22678;52.052;4.242;2023-07-02T08:58:15;101112.84;;;23.30;43.77
36692;BME280;22678;52.052;4.242;2023-07-02T09:01:07;101118.59;;;23.23;43.47
36692;BME280;22678;52.052;4.242;2023-07-02T09:03:33;101115.63;;;23.12;43.69
36692;BME280;22678;52.052;4.242;2023-07-02T09:05:59;101110.41;;;23.09;44.36
36692;BME280;22678;52.052;4.242;2023-07-02T09:08:25;101105.94;;;23.25;44.89
36692;BME280;22678;52.052;4.242;2023-07-02T09:10:51;101118.53;;;23.39;44.07
36692;BME280;22678;52.052;4.242;2023-07-02T09:13:16;101114.25;;;23.37;43.87
36692;BME280;22678;52.052;4.242;2023-07-02T09:15:42;101121.16;;;23.41;43.90
36692;BME280;22678;52.052;4.242;2023-07-02T09:18:15;101123.69;;;23.58;44.10
36692;BME280;22678;52.052;4.242;2023-07-02T09:20:41;101126.25;;;23.76;44.11
36692;BME280;22678;52.052;4.242;2023-07-02T09:23:06;101117.44;;;23.90;43.51
36692;BME280;22678;52.052;4.242;2023-07-02T09:25:39;101130.44;;;24.12;42.88
36692;BME280;22678;52.052;4.242;2023-07-02T09:30:52;101136.41;;;24.31;42.13
36692;BME280;22678;52.052;4.242;2023-07-02T09:33:18;101128.16;;;24.35;41.36
36692;BME280;22678;52.052;4.242;2023-07-02T09:35:43;101126.91;;;24.40;41.62
36692;BME280;22678;52.052;4.242;2023-07-02T09:38:10;101118.75;;;24.42;40.46
36692;BME280;22678;52.052;4.242;2023-07-02T09:40:39;101122.38;;;24.41;40.95
36692;BME280;22678;52.052;4.242;2023-07-02T09:43:11;101116.66;;;24.47;40.44
36692;BME280;22678;52.052;4.242;2023-07-02T09:45:36;101117.00;;;24.55;40.49
36692;BME280;22678;52.052;4.242;2023-07-02T09:48:02;101116.34;;;24.66;40.46
36692;BME280;22678;52.052;4.242;2023-07-02T09:50:30;101112.53;;;24.70;40.53
36692;BME280;22678;52.052;4.242;2023-07-02T09:52:55;101128.75;;;24.83;41.39
36692;BME280;22678;52.052;4.242;2023-07-02T09:55:21;101126.25;;;24.94;40.41
36692;BME280;22678;52.052;4.242;2023-07-02T09:57:46;101133.81;;;25.02;40.84
36692;BME280;22678;52.052;4.242;2023-07-02T10:00:13;101127.38;;;25.05;40.29
36692;BME280;22678;52.052;4.242;2023-07-02T10:02:39;101124.50;;;25.08;40.05
36692;BME280;22678;52.052;4.242;2023-07-02T10:05:04;101130.63;;;25.10;39.95
36692;BME280;22678;52.052;4.242;2023-07-02T10:07:31;101132.56;;;25.08;39.54
36692;BME280;22678;52.052;4.242;2023-07-02T10:09:59;101132.47;;;24.95;39.81
36692;BME280;22678;52.052;4.242;2023-07-02T10:12:29;101144.50;;;24.89;40.29
36692;BME280;22678;52.052;4.242;2023-07-02T10:14:56;101131.84;;;24.77;39.02
36692;BME280;22678;52.052;4.242;2023-07-02T10:17:53;101145.56;;;24.72;40.20
36692;BME280;22678;52.052;4.242;2023-07-02T10:20:31;101140.31;;;24.71;39.47
36692;BME280;22678;52.052;4.242;2023-07-02T10:22:57;101135.47;;;24.61;39.65
36692;BME280;22678;52.052;4.242;2023-07-02T10:25:27;101139.41;;;24.70;39.24
36692;BME280;22678;52.052;4.242;2023-07-02T10:27:53;101143.66;;;24.74;39.80
36692;BME280;22678;52.052;4.242;2023-07-02T10:30:33;101145.09;;;24.80;40.09
36692;BME280;22678;52.052;4.242;2023-07-02T10:33:28;101149.31;;;24.98;40.15
36692;BME280;22678;52.052;4.242;2023-07-02T10:35:53;101149.00;;;25.03;38.90
36692;BME280;22678;52.052;4.242;2023-07-02T10:38:25;101146.97;;;25.07;37.08
36692;BME280;22678;52.052;4.242;2023-07-02T10:40:58;101154.47;;;25.01;38.12
36692;BME280;22678;52.052;4.242;2023-07-02T10:43:28;101144.38;;;25.05;36.92
36692;BME280;22678;52.052;4.242;2023-07-02T10:45:54;101150.72;;;25.04;38.13
36692;BME280;22678;52.052;4.242;2023-07-02T10:48:20;101159.47;;;25.08;38.59
36692;BME280;22678;52.052;4.242;2023-07-02T10:50:45;101137.53;;;25.14;38.46
36692;BME280;22678;52.052;4.242;2023-07-02T10:53:17;101137.50;;;25.28;38.31
36692;BME280;22678;52.052;4.242;2023-07-02T10:55:44;101149.97;;;25.44;37.99
36692;BME280;22678;52.052;4.242;2023-07-02T10:58:10;101153.66;;;25.43;37.13
36692;BME280;22678;52.052;4.242;2023-07-02T11:00:50;101156.72;;;25.36;38.19
36692;BME280;22678;52.052;4.242;2023-07-02T11:03:25;101154.81;;;25.39;38.34
36692;BME280;22678;52.052;4.242;2023-07-02T11:05:52;101155.97;;;25.34;38.48
36692;BME280;22678;52.052;4.242;2023-07-02T11:08:17;101162.47;;;25.45;38.94
36692;BME280;22678;52.052;4.242;2023-07-02T11:10:43;101159.16;;;25.54;39.10
36692;BME280;22678;52.052;4.242;2023-07-02T11:13:16;101147.03;;;25.61;39.38
36692;BME280;22678;52.052;4.242;2023-07-02T11:15:43;101163.13;;;25.76;37.72
36692;BME280;22678;52.052;4.242;2023-07-02T11:18:19;101171.47;;;25.85;37.84
36692;BME280;22678;52.052;4.242;2023-07-02T11:20:47;101163.66;;;25.81;37.83
36692;BME280;22678;52.052;4.242;2023-07-02T11:23:34;101151.41;;;25.77;38.40
36692;BME280;22678;52.052;4.242;2023-07-02T11:26:01;101154.09;;;25.77;38.41
36692;BME280;22678;52.052;4.242;2023-07-02T11:28:28;101179.66;;;25.84;37.76
36692;BME280;22678;52.052;4.242;2023-07-02T11:30:54;101165.59;;;25.79;37.98
36692;BME280;22678;52.052;4.242;2023-07-02T11:33:31;101174.44;;;25.81;38.13
36692;BME280;22678;52.052;4.242;2023-07-02T11:35:57;101169.63;;;25.86;37.91
36692;BME280;22678;52.052;4.242;2023-07-02T11:38:22;101170.03;;;25.93;37.74
36692;BME280;22678;52.052;4.242;2023-07-02T11:40:47;101155.19;;;25.87;37.49
36692;BME280;22678;52.052;4.242;2023-07-02T11:43:13;101147.72;;;25.78;37.81
36692;BME280;22678;52.052;4.242;2023-07-02T11:45:38;101171.03;;;25.92;37.46
36692;BME280;22678;52.052;4.242;2023-07-02T11:48:04;101163.47;;;25.84;37.08
36692;BME280;22678;52.052;4.242;2023-07-02T11:50:29;101167.34;;;25.80;36.33
36692;BME280;22678;52.052;4.242;2023-07-02T11:52:55;101167.75;;;25.74;36.02
36692;BME280;22678;52.052;4.242;2023-07-02T11:55:21;101165.66;;;25.64;36.62
36692;BME280;22678;52.052;4.242;2023-07-02T11:57:46;101174.72;;;25.63;37.31
36692;BME280;22678;52.052;4.242;2023-07-02T12:00:14;101171.41;;;25.73;35.54
36692;BME280;22678;52.052;4.242;2023-07-02T12:02:39;101174.84;;;25.75;35.83
36692;BME280;22678;52.052;4.242;2023-07-02T12:05:05;101161.25;;;25.63;35.38
36692;BME280;22678;52.052;4.242;2023-07-02T12:07:30;101184.09;;;25.70;36.31
36692;BME280;22678;52.052;4.242;2023-07-02T12:09:56;101180.25;;;25.75;36.81
36692;BME280;22678;52.052;4.242;2023-07-02T12:12:21;101181.03;;;25.77;34.52
36692;BME280;22678;52.052;4.242;2023-07-02T12:14:46;101196.59;;;25.71;35.03
36692;BME280;22678;52.052;4.242;2023-07-02T12:17:11;101190.31;;;25.58;36.05
36692;BME280;22678;52.052;4.242;2023-07-02T12:19:38;101181.28;;;25.59;35.53
36692;BME280;22678;52.052;4.242;2023-07-02T12:22:04;101188.84;;;25.67;36.46
36692;BME280;22678;52.052;4.242;2023-07-02T12:24:29;101183.31;;;25.83;36.10
36692;BME280;22678;52.052;4.242;2023-07-02T12:26:55;101206.16;;;25.90;36.58
36692;BME280;22678;52.052;4.242;2023-07-02T12:29:20;101194.41;;;25.91;36.10
36692;BME280;22678;52.052;4.242;2023-07-02T12:31:45;101189.19;;;26.02;36.55
36692;BME280;22678;52.052;4.242;2023-07-02T12:34:11;101195.69;;;26.13;36.06
36692;BME280;22678;52.052;4.242;2023-07-02T12:36:36;101203.22;;;26.20;36.10
36692;BME280;22678;52.052;4.242;2023-07-02T12:39:02;101187.72;;;26.24;36.03
36692;BME280;22678;52.052;4.242;2023-07-02T12:41:27;101209.50;;;26.34;35.61
36692;BME280;22678;52.052;4.242;2023-07-02T12:43:53;101190.75;;;26.32;36.00
36692;BME280;22678;52.052;4.242;2023-07-02T12:46:18;101199.16;;;26.40;35.57
36692;BME280;22678;52.052;4.242;2023-07-02T12:48:44;101197.00;;;26.33;35.20